createdAt,value
2023-04-18T00:00:13.263Z,95111.00
2023-04-18T00:01:13.255Z,95107.00
2023-04-18T00:02:13.401Z,95107.00
2023-04-18T00:03:13.556Z,95111.00
2023-04-18T00:04:13.976Z,95107.00
2023-04-18T00:05:13.459Z,95107.00
2023-04-18T00:06:13.417Z,95109.00
2023-04-18T00:07:13.452Z,95109.00
2023-04-18T00:08:13.495Z,95109.00
2023-04-18T00:09:13.532Z,95107.00
2023-04-18T00:10:13.614Z,95105.00
2023-04-18T00:11:13.578Z,95105.00
2023-04-18T00:12:13.599Z,95105.00
2023-04-18T00:13:13.680Z,95101.00
2023-04-18T00:14:13.925Z,95103.00
2023-04-18T00:15:13.750Z,95101.00
2023-04-18T00:16:13.844Z,95101.00
2023-04-18T00:17:13.898Z,95101.00
2023-04-18T00:18:13.844Z,95099.00
2023-04-18T00:19:13.935Z,95099.00
2023-04-18T00:20:13.942Z,95099.00
2023-04-18T00:21:13.961Z,95099.00
2023-04-18T00:22:14.014Z,95101.00
2023-04-18T00:23:14.194Z,95099.00
2023-04-18T00:24:14.391Z,95097.00
2023-04-18T00:25:14.214Z,95099.00
2023-04-18T00:26:14.254Z,95101.00
2023-04-18T00:27:14.265Z,95101.00
2023-04-18T00:28:14.297Z,95101.00
2023-04-18T00:29:14.411Z,95101.00
2023-04-18T00:30:14.405Z,95099.00
2023-04-18T00:31:14.510Z,95103.00
2023-04-18T00:32:14.519Z,95101.00
2023-04-18T00:33:14.555Z,95099.00
2023-04-18T00:34:14.810Z,95101.00
2023-04-18T00:35:14.665Z,95101.00
2023-04-18T00:36:14.708Z,95101.00
2023-04-18T00:37:14.740Z,95099.00
2023-04-18T00:38:14.803Z,95101.00
2023-04-18T00:39:14.856Z,95099.00
2023-04-18T00:40:14.873Z,95099.00
2023-04-18T00:41:14.932Z,95101.00
2023-04-18T00:42:14.967Z,95099.00
2023-04-18T00:43:15.060Z,95101.00
2023-04-18T00:44:15.220Z,95099.00
2023-04-18T00:45:15.185Z,95101.00
2023-04-18T00:46:15.187Z,95099.00
2023-04-18T00:47:15.221Z,95097.00
2023-04-18T00:48:15.268Z,95097.00
2023-04-18T00:49:15.340Z,95095.00
2023-04-18T00:50:15.319Z,95095.00
2023-04-18T00:51:15.376Z,95093.00
2023-04-18T00:52:15.395Z,95091.00
2023-04-18T00:53:15.398Z,95095.00
2023-04-18T00:54:15.792Z,95095.00
2023-04-18T00:55:15.513Z,95093.00
2023-04-18T00:56:15.547Z,95093.00
2023-04-18T00:57:15.622Z,95095.00
2023-04-18T00:58:15.637Z,95093.00
2023-04-18T00:59:15.740Z,95091.00
2023-04-18T01:00:16.745Z,95091.00
2023-04-18T01:01:15.806Z,95091.00
2023-04-18T01:02:15.887Z,95091.00
2023-04-18T01:03:16.011Z,95091.00
2023-04-18T01:04:16.206Z,95089.00
2023-04-18T01:05:15.945Z,95091.00
2023-04-18T01:06:16.017Z,95091.00
2023-04-18T01:07:16.019Z,95091.00
2023-04-18T01:08:16.062Z,95091.00
2023-04-18T01:09:16.133Z,95093.00
2023-04-18T01:10:16.181Z,95093.00
2023-04-18T01:11:16.202Z,95091.00
2023-04-18T01:12:16.206Z,95089.00
2023-04-18T01:13:16.254Z,95093.00
2023-04-18T01:14:16.277Z,95091.00
2023-04-18T01:15:16.282Z,95093.00
2023-04-18T01:16:16.352Z,95089.00
2023-04-18T01:17:16.312Z,95089.00
2023-04-18T01:18:16.325Z,95087.00
2023-04-18T01:19:16.361Z,95087.00
2023-04-18T01:20:16.354Z,95087.00
2023-04-18T01:21:16.371Z,95087.00
2023-04-18T01:22:16.389Z,95083.00
2023-04-18T01:23:16.421Z,95083.00
2023-04-18T01:24:16.699Z,95083.00
2023-04-18T01:25:16.460Z,95083.00
2023-04-18T01:26:16.470Z,95083.00
2023-04-18T01:27:16.490Z,95081.00
2023-04-18T01:28:16.497Z,95083.00
2023-04-18T01:29:16.544Z,95081.00
2023-04-18T01:30:16.537Z,95076.00
2023-04-18T01:31:16.546Z,95077.00
2023-04-18T01:32:16.548Z,95077.00
2023-04-18T01:33:16.531Z,95079.00
2023-04-18T01:34:16.529Z,95079.00
2023-04-18T01:35:16.542Z,95077.00
2023-04-18T01:36:16.560Z,95076.00
2023-04-18T01:37:16.613Z,95074.00
2023-04-18T01:38:16.505Z,95076.00
2023-04-18T01:39:16.523Z,95074.00
2023-04-18T01:40:16.530Z,95074.00
2023-04-18T01:41:16.521Z,95077.00
2023-04-18T01:42:16.522Z,95076.00
2023-04-18T01:43:16.511Z,95074.00
2023-04-18T01:44:16.623Z,95074.00
2023-04-18T01:45:16.560Z,95074.00
2023-04-18T01:46:16.639Z,95074.00
2023-04-18T01:47:16.605Z,95074.00
2023-04-18T01:48:16.579Z,95076.00
2023-04-18T01:49:16.618Z,95076.00
2023-04-18T01:50:16.636Z,95074.00
2023-04-18T01:51:16.639Z,95076.00
2023-04-18T01:52:16.676Z,95076.00
2023-04-18T01:53:16.649Z,95077.00
2023-04-18T01:54:16.827Z,95076.00
2023-04-18T01:55:16.688Z,95077.00
2023-04-18T01:56:16.688Z,95079.00
2023-04-18T01:57:16.700Z,95077.00
2023-04-18T01:58:16.764Z,95079.00
2023-04-18T01:59:16.767Z,95079.00
2023-04-18T02:00:16.855Z,95079.00
2023-04-18T02:01:16.846Z,95079.00
2023-04-18T02:02:16.863Z,95079.00
2023-04-18T02:03:16.921Z,95076.00
2023-04-18T02:04:16.964Z,95077.00
2023-04-18T02:05:16.845Z,95076.00
2023-04-18T02:06:16.861Z,95076.00
2023-04-18T02:07:16.849Z,95077.00
2023-04-18T02:08:16.853Z,95079.00
2023-04-18T02:09:16.884Z,95077.00
2023-04-18T02:10:16.882Z,95077.00
2023-04-18T02:11:16.907Z,95076.00
2023-04-18T02:12:16.951Z,95077.00
2023-04-18T02:13:16.972Z,95077.00
2023-04-18T02:14:16.955Z,95077.00
2023-04-18T02:15:17.004Z,95077.00
2023-04-18T02:16:17.011Z,95076.00
2023-04-18T02:17:16.991Z,95076.00
2023-04-18T02:18:17.024Z,95074.00
2023-04-18T02:19:17.005Z,95074.00
2023-04-18T02:20:17.067Z,95077.00
2023-04-18T02:21:17.077Z,95076.00
2023-04-18T02:22:17.052Z,95076.00
2023-04-18T02:23:17.079Z,95077.00
2023-04-18T02:24:17.103Z,95076.00
2023-04-18T02:25:17.146Z,95077.00
2023-04-18T02:26:17.097Z,95074.00
2023-04-18T02:27:17.125Z,95074.00
2023-04-18T02:28:17.185Z,95079.00
2023-04-18T02:29:17.156Z,95077.00
2023-04-18T02:30:17.161Z,95079.00
2023-04-18T02:31:17.208Z,95081.00
2023-04-18T02:32:17.149Z,95081.00
2023-04-18T02:33:17.178Z,95077.00
2023-04-18T02:34:17.161Z,95076.00
2023-04-18T02:35:17.138Z,95079.00
2023-04-18T02:36:17.164Z,95085.00
2023-04-18T02:37:17.162Z,95077.00
2023-04-18T02:38:17.189Z,95083.00
2023-04-18T02:39:17.200Z,95085.00
2023-04-18T02:40:17.183Z,95077.00
2023-04-18T02:41:17.159Z,95077.00
2023-04-18T02:42:17.180Z,95077.00
2023-04-18T02:43:17.163Z,95077.00
2023-04-18T02:44:17.153Z,95079.00
2023-04-18T02:45:17.173Z,95077.00
2023-04-18T02:46:17.204Z,95077.00
2023-04-18T02:47:17.116Z,95077.00
2023-04-18T02:48:17.161Z,95079.00
2023-04-18T02:49:17.144Z,95077.00
2023-04-18T02:50:17.239Z,95079.00
2023-04-18T02:51:17.093Z,95079.00
2023-04-18T02:52:17.118Z,95079.00
2023-04-18T02:53:17.130Z,95076.00
2023-04-18T02:54:17.112Z,95077.00
2023-04-18T02:55:17.121Z,95076.00
2023-04-18T02:56:17.133Z,95076.00
2023-04-18T02:57:17.082Z,95076.00
2023-04-18T02:58:17.127Z,95076.00
2023-04-18T02:59:17.097Z,95070.00
2023-04-18T03:00:17.079Z,95070.00
2023-04-18T03:01:17.182Z,95074.00
2023-04-18T03:02:17.124Z,95072.00
2023-04-18T03:03:17.148Z,95072.00
2023-04-18T03:04:17.092Z,95072.00
2023-04-18T03:05:17.084Z,95074.00
2023-04-18T03:06:17.052Z,95070.00
2023-04-18T03:07:17.065Z,95072.00
2023-04-18T03:08:17.064Z,95070.00
2023-04-18T03:09:17.045Z,95070.00
2023-04-18T03:10:17.050Z,95070.00
2023-04-18T03:11:17.039Z,95068.00
2023-04-18T03:12:17.038Z,95070.00
2023-04-18T03:13:17.079Z,95070.00
2023-04-18T03:14:17.041Z,95068.00
2023-04-18T03:15:17.021Z,95070.00
2023-04-18T03:16:17.126Z,95068.00
2023-04-18T03:17:17.032Z,95068.00
2023-04-18T03:18:17.000Z,95068.00
2023-04-18T03:19:17.033Z,95066.00
2023-04-18T03:20:16.997Z,95070.00
2023-04-18T03:21:16.995Z,95066.00
2023-04-18T03:22:16.976Z,95068.00
2023-04-18T03:23:16.991Z,95068.00
2023-04-18T03:24:17.145Z,95066.00
2023-04-18T03:25:16.975Z,95064.00
2023-04-18T03:26:16.989Z,95064.00
2023-04-18T03:27:16.944Z,95062.00
2023-04-18T03:28:16.955Z,95064.00
2023-04-18T03:29:16.964Z,95062.00
2023-04-18T03:30:16.965Z,95064.00
2023-04-18T03:31:16.938Z,95062.00
2023-04-18T03:32:16.987Z,95064.00
2023-04-18T03:33:16.960Z,95062.00
2023-04-18T03:34:16.919Z,95066.00
2023-04-18T03:35:16.930Z,95064.00
2023-04-18T03:36:16.911Z,95064.00
2023-04-18T03:37:16.892Z,95066.00
2023-04-18T03:38:16.893Z,95066.00
2023-04-18T03:39:16.890Z,95066.00
2023-04-18T03:40:16.888Z,95066.00
2023-04-18T03:41:16.891Z,95068.00
2023-04-18T03:42:16.870Z,95066.00
2023-04-18T03:43:16.859Z,95066.00
2023-04-18T03:44:16.939Z,95064.00
2023-04-18T03:45:16.878Z,95064.00
2023-04-18T03:46:16.904Z,95062.00
2023-04-18T03:47:16.906Z,95062.00
2023-04-18T03:48:17.452Z,95062.00
2023-04-18T03:49:16.847Z,95062.00
2023-04-18T03:50:16.862Z,95062.00
2023-04-18T03:51:16.844Z,95064.00
2023-04-18T03:52:16.843Z,95060.00
2023-04-18T03:53:16.858Z,95064.00
2023-04-18T03:54:16.981Z,95060.00
2023-04-18T03:55:16.845Z,95062.00
2023-04-18T03:56:16.840Z,95062.00
2023-04-18T03:57:16.824Z,95066.00
2023-04-18T03:58:16.832Z,95064.00
2023-04-18T03:59:16.813Z,95066.00
2023-04-18T04:00:16.816Z,95064.00
2023-04-18T04:01:16.839Z,95064.00
2023-04-18T04:02:16.924Z,95066.00
2023-04-18T04:03:16.995Z,95066.00
2023-04-18T04:04:17.167Z,95064.00
2023-04-18T04:05:16.828Z,95064.00
2023-04-18T04:06:16.810Z,95064.00
2023-04-18T04:07:16.798Z,95064.00
2023-04-18T04:08:16.783Z,95066.00
2023-04-18T04:09:16.779Z,95068.00
2023-04-18T04:10:16.795Z,95066.00
2023-04-18T04:11:16.807Z,95066.00
2023-04-18T04:12:16.785Z,95068.00
2023-04-18T04:13:16.766Z,95068.00
2023-04-18T04:14:16.761Z,95066.00
2023-04-18T04:15:16.772Z,95066.00
2023-04-18T04:16:16.873Z,95070.00
2023-04-18T04:17:16.791Z,95070.00
2023-04-18T04:18:16.793Z,95068.00
2023-04-18T04:19:16.785Z,95068.00
2023-04-18T04:20:16.774Z,95070.00
2023-04-18T04:21:17.112Z,95070.00
2023-04-18T04:22:16.775Z,95072.00
2023-04-18T04:23:16.764Z,95072.00
2023-04-18T04:24:16.863Z,95076.00
2023-04-18T04:25:16.766Z,95074.00
2023-04-18T04:26:16.759Z,95076.00
2023-04-18T04:27:16.750Z,95076.00
2023-04-18T04:28:16.748Z,95076.00
2023-04-18T04:29:16.734Z,95077.00
2023-04-18T04:30:16.734Z,95077.00
2023-04-18T04:31:16.812Z,95077.00
2023-04-18T04:32:16.747Z,95079.00
2023-04-18T04:33:16.729Z,95079.00
2023-04-18T04:34:16.938Z,95079.00
2023-04-18T04:35:16.733Z,95079.00
2023-04-18T04:36:18.540Z,95079.00
2023-04-18T04:37:16.707Z,95081.00
2023-04-18T04:38:16.733Z,95083.00
2023-04-18T04:39:16.716Z,95079.00
2023-04-18T04:40:16.702Z,95083.00
2023-04-18T04:41:16.688Z,95081.00
2023-04-18T04:42:16.756Z,95085.00
2023-04-18T04:43:16.687Z,95085.00
2023-04-18T04:44:16.775Z,95085.00
2023-04-18T04:45:16.689Z,95085.00
2023-04-18T04:46:16.717Z,95085.00
2023-04-18T04:47:16.669Z,95085.00
2023-04-18T04:48:16.707Z,95083.00
2023-04-18T04:49:17.440Z,95089.00
2023-04-18T04:50:16.697Z,95087.00
2023-04-18T04:51:16.697Z,95085.00
2023-04-18T04:52:16.720Z,95085.00
2023-04-18T04:53:16.702Z,95087.00
2023-04-18T04:54:16.926Z,95089.00
2023-04-18T04:55:16.690Z,95089.00
2023-04-18T04:56:16.699Z,95087.00
2023-04-18T04:57:16.705Z,95089.00
2023-04-18T04:58:16.702Z,95091.00
2023-04-18T04:59:16.696Z,95087.00
2023-04-18T05:00:16.712Z,95089.00
2023-04-18T05:01:16.702Z,95091.00
2023-04-18T05:02:16.771Z,95093.00
2023-04-18T05:03:16.825Z,95091.00
2023-04-18T05:04:16.909Z,95091.00
2023-04-18T05:05:16.709Z,95093.00
2023-04-18T05:06:16.690Z,95091.00
2023-04-18T05:07:16.711Z,95091.00
2023-04-18T05:08:16.684Z,95091.00
2023-04-18T05:09:16.702Z,95091.00
2023-04-18T05:10:16.678Z,95093.00
2023-04-18T05:11:16.702Z,95093.00
2023-04-18T05:12:16.700Z,95093.00
2023-04-18T05:13:16.695Z,95095.00
2023-04-18T05:14:16.750Z,95095.00
2023-04-18T05:15:16.705Z,95095.00
2023-04-18T05:16:16.713Z,95095.00
2023-04-18T05:17:16.666Z,95097.00
2023-04-18T05:18:16.678Z,95097.00
2023-04-18T05:19:16.654Z,95099.00
2023-04-18T05:20:16.692Z,95097.00
2023-04-18T05:21:16.680Z,95099.00
2023-04-18T05:22:16.657Z,95095.00
2023-04-18T05:23:16.667Z,95095.00
2023-04-18T05:24:16.882Z,95095.00
2023-04-18T05:25:16.664Z,95099.00
2023-04-18T05:26:16.678Z,95101.00
2023-04-18T05:27:18.122Z,95097.00
2023-04-18T05:28:16.669Z,95099.00
2023-04-18T05:29:16.652Z,95099.00
2023-04-18T05:30:16.721Z,95097.00
2023-04-18T05:31:16.738Z,95099.00
2023-04-18T05:32:16.662Z,95099.00
2023-04-18T05:33:16.674Z,95099.00
2023-04-18T05:34:16.753Z,95095.00
2023-04-18T05:35:16.662Z,95097.00
2023-04-18T05:36:16.671Z,95097.00
2023-04-18T05:37:16.666Z,95095.00
2023-04-18T05:38:16.671Z,95099.00
2023-04-18T05:39:16.681Z,95097.00
2023-04-18T05:40:16.848Z,95099.00
2023-04-18T05:41:16.684Z,95099.00
2023-04-18T05:42:16.673Z,95103.00
2023-04-18T05:43:16.691Z,95105.00
2023-04-18T05:44:16.660Z,95103.00
2023-04-18T05:45:16.661Z,95105.00
2023-04-18T05:46:16.712Z,95109.00
2023-04-18T05:47:16.692Z,95105.00
2023-04-18T05:48:16.727Z,95109.00
2023-04-18T05:49:16.794Z,95109.00
2023-04-18T05:50:16.813Z,95111.00
2023-04-18T05:51:16.822Z,95111.00
2023-04-18T05:52:16.907Z,95109.00
2023-04-18T05:53:16.949Z,95113.00
2023-04-18T05:54:17.012Z,95113.00
2023-04-18T05:55:17.078Z,95113.00
2023-04-18T05:56:17.091Z,95117.00
2023-04-18T05:57:17.169Z,95115.00
2023-04-18T05:58:17.214Z,95119.00
2023-04-18T05:59:17.280Z,95117.00
2023-04-18T06:00:17.416Z,95121.00
2023-04-18T06:01:17.367Z,95117.00
2023-04-18T06:02:17.512Z,95121.00
2023-04-18T06:03:17.697Z,95117.00
2023-04-18T06:04:17.921Z,95117.00
2023-04-18T06:05:18.003Z,95121.00
2023-04-18T06:06:17.541Z,95124.00
2023-04-18T06:07:17.555Z,95123.00
2023-04-18T06:08:17.597Z,95123.00
2023-04-18T06:09:17.648Z,95123.00
2023-04-18T06:10:17.668Z,95124.00
2023-04-18T06:11:17.709Z,95128.00
2023-04-18T06:12:17.718Z,95128.00
2023-04-18T06:13:17.758Z,95132.00
2023-04-18T06:14:17.795Z,95130.00
2023-04-18T06:15:17.829Z,95128.00
2023-04-18T06:16:17.879Z,95126.00
2023-04-18T06:17:17.893Z,95130.00
2023-04-18T06:18:17.922Z,95128.00
2023-04-18T06:19:17.958Z,95130.00
2023-04-18T06:20:18.061Z,95130.00
2023-04-18T06:21:18.082Z,95128.00
2023-04-18T06:22:18.124Z,95132.00
2023-04-18T06:23:18.142Z,95134.00
2023-04-18T06:24:18.228Z,95134.00
2023-04-18T06:25:18.261Z,95136.00
2023-04-18T06:26:18.314Z,95132.00
2023-04-18T06:27:30.456Z,95130.00
2023-04-18T06:28:19.332Z,95134.00
2023-04-18T06:29:18.346Z,95132.00
2023-04-18T06:30:18.347Z,95134.00
2023-04-18T06:31:18.383Z,95134.00
2023-04-18T06:32:18.362Z,95132.00
2023-04-18T06:33:18.320Z,95136.00
2023-04-18T06:34:18.405Z,95138.00
2023-04-18T06:35:18.300Z,95136.00
2023-04-18T06:36:18.313Z,95138.00
2023-04-18T06:37:18.268Z,95136.00
2023-04-18T06:38:18.307Z,95134.00
2023-04-18T06:39:18.305Z,95136.00
2023-04-18T06:40:18.343Z,95138.00
2023-04-18T06:41:18.400Z,95136.00
2023-04-18T06:42:19.641Z,95136.00
2023-04-18T06:43:18.491Z,95136.00
2023-04-18T06:44:18.505Z,95138.00
2023-04-18T06:45:18.875Z,95136.00
2023-04-18T06:46:18.600Z,95146.00
2023-04-18T06:47:18.564Z,95136.00
2023-04-18T06:48:18.574Z,95136.00
2023-04-18T06:49:18.598Z,95134.00
2023-04-18T06:50:18.590Z,95146.00
2023-04-18T06:51:18.618Z,95146.00
2023-04-18T06:52:18.617Z,95136.00
2023-04-18T06:53:18.610Z,95146.00
2023-04-18T06:54:18.629Z,95138.00
2023-04-18T06:55:18.615Z,95136.00
2023-04-18T06:56:19.327Z,95136.00
2023-04-18T06:57:18.580Z,95138.00
2023-04-18T06:58:18.603Z,95146.00
2023-04-18T06:59:18.563Z,95136.00
2023-04-18T07:00:18.614Z,95146.00
2023-04-18T07:01:18.588Z,95136.00
2023-04-18T07:02:18.731Z,95136.00
2023-04-18T07:03:18.785Z,95136.00
2023-04-18T07:04:19.101Z,95138.00
2023-04-18T07:05:18.635Z,95134.00
2023-04-18T07:06:18.675Z,95138.00
2023-04-18T07:07:18.721Z,95132.00
2023-04-18T07:08:18.741Z,95134.00
2023-04-18T07:09:18.813Z,95132.00
2023-04-18T07:10:18.890Z,95136.00
2023-04-18T07:11:18.911Z,95134.00
2023-04-18T07:12:18.997Z,95136.00
2023-04-18T07:13:19.040Z,95136.00
2023-04-18T07:14:19.086Z,95136.00
2023-04-18T07:15:19.170Z,95136.00
2023-04-18T07:16:19.245Z,95134.00
2023-04-18T07:17:19.326Z,95134.00
2023-04-18T07:18:30.227Z,95132.00
2023-04-18T07:19:20.313Z,95132.00
2023-04-18T07:20:19.319Z,95132.00
2023-04-18T07:21:19.309Z,95128.00
2023-04-18T07:22:19.297Z,95130.00
2023-04-18T07:23:19.281Z,95126.00
2023-04-18T07:24:19.290Z,95132.00
2023-04-18T07:25:19.350Z,95132.00
2023-04-18T07:26:19.266Z,95128.00
2023-04-18T07:27:19.250Z,95134.00
2023-04-18T07:28:19.317Z,95132.00
2023-04-18T07:29:19.391Z,95132.00
2023-04-18T07:30:19.448Z,95132.00
2023-04-18T07:31:19.578Z,95134.00
2023-04-18T07:32:19.523Z,95134.00
2023-04-18T07:33:19.540Z,95136.00
2023-04-18T07:34:19.610Z,95134.00
2023-04-18T07:35:19.627Z,95134.00
2023-04-18T07:36:19.703Z,95136.00
2023-04-18T07:37:19.722Z,95134.00
2023-04-18T07:38:20.457Z,95148.00
2023-04-18T07:39:19.856Z,95146.00
2023-04-18T07:40:19.880Z,95146.00
2023-04-18T07:41:19.896Z,95148.00
2023-04-18T07:42:19.985Z,95146.00
2023-04-18T07:43:20.870Z,95150.00
2023-04-18T07:44:19.992Z,95146.00
2023-04-18T07:45:20.393Z,95148.00
2023-04-18T07:46:20.123Z,95146.00
2023-04-18T07:47:22.331Z,95136.00
2023-04-18T07:48:20.211Z,95136.00
2023-04-18T07:49:20.173Z,95138.00
2023-04-18T07:50:20.407Z,95138.00
2023-04-18T07:51:20.241Z,95138.00
2023-04-18T07:52:20.268Z,95146.00
2023-04-18T07:53:20.354Z,95136.00
2023-04-18T07:54:20.507Z,95132.00
2023-04-18T07:55:20.452Z,95134.00
2023-04-18T07:56:20.440Z,95134.00
2023-04-18T07:57:20.403Z,95134.00
2023-04-18T07:58:20.369Z,95132.00
2023-04-18T07:59:20.352Z,95132.00
2023-04-18T08:00:20.391Z,95134.00
2023-04-18T08:01:20.420Z,95134.00
2023-04-18T08:02:20.501Z,95134.00
2023-04-18T08:03:20.753Z,95134.00
2023-04-18T08:04:20.666Z,95138.00
2023-04-18T08:05:20.707Z,95132.00
2023-04-18T08:06:20.708Z,95136.00
2023-04-18T08:07:20.753Z,95134.00
2023-04-18T08:08:20.803Z,95132.00
2023-04-18T08:09:20.840Z,95130.00
2023-04-18T08:10:22.479Z,95128.00
2023-04-18T08:11:20.896Z,95128.00
2023-04-18T08:12:20.805Z,95130.00
2023-04-18T08:13:20.817Z,95126.00
2023-04-18T08:14:20.835Z,95126.00
2023-04-18T08:15:20.814Z,95124.00
2023-04-18T08:16:20.815Z,95130.00
2023-04-18T08:17:20.813Z,95126.00
2023-04-18T08:18:20.792Z,95124.00
2023-04-18T08:19:20.822Z,95126.00
2023-04-18T08:20:20.869Z,95123.00
2023-04-18T08:21:20.753Z,95124.00
2023-04-18T08:22:20.762Z,95119.00
2023-04-18T08:23:20.763Z,95121.00
2023-04-18T08:24:20.736Z,95121.00
2023-04-18T08:25:20.726Z,95121.00
2023-04-18T08:26:21.030Z,95121.00
2023-04-18T08:27:20.698Z,95121.00
2023-04-18T08:28:20.705Z,95124.00
2023-04-18T08:29:20.685Z,95121.00
2023-04-18T08:30:20.693Z,95121.00
2023-04-18T08:31:20.754Z,95119.00
2023-04-18T08:32:20.739Z,95117.00
2023-04-18T08:33:20.688Z,95119.00
2023-04-18T08:34:20.693Z,95119.00
2023-04-18T08:35:20.644Z,95119.00
2023-04-18T08:36:20.907Z,95123.00
2023-04-18T08:37:20.647Z,95117.00
2023-04-18T08:38:20.644Z,95117.00
2023-04-18T08:39:20.632Z,95115.00
2023-04-18T08:40:20.634Z,95119.00
2023-04-18T08:41:20.949Z,95121.00
2023-04-18T08:42:20.656Z,95117.00
2023-04-18T08:43:20.603Z,95119.00
2023-04-18T08:44:20.580Z,95111.00
2023-04-18T08:45:20.590Z,95117.00
2023-04-18T08:46:20.946Z,95109.00
2023-04-18T08:47:20.588Z,95124.00
2023-04-18T08:48:20.574Z,95121.00
2023-04-18T08:49:20.586Z,95123.00
2023-04-18T08:50:20.582Z,95128.00
2023-04-18T08:51:20.902Z,95126.00
2023-04-18T08:52:20.553Z,95126.00
2023-04-18T08:53:20.565Z,95123.00
2023-04-18T08:54:20.517Z,95123.00
2023-04-18T08:55:20.536Z,95119.00
2023-04-18T08:56:20.502Z,95121.00
2023-04-18T08:57:20.510Z,95121.00
2023-04-18T08:58:20.708Z,95121.00
2023-04-18T08:59:20.496Z,95121.00
2023-04-18T09:00:20.499Z,95123.00
2023-04-18T09:01:20.597Z,95121.00
2023-04-18T09:02:20.534Z,95119.00
2023-04-18T09:03:20.544Z,95121.00
2023-04-18T09:04:20.521Z,95119.00
2023-04-18T09:05:20.462Z,95121.00
2023-04-18T09:06:20.476Z,95119.00
2023-04-18T09:07:20.428Z,95121.00
2023-04-18T09:08:20.445Z,95121.00
2023-04-18T09:09:20.410Z,95123.00
2023-04-18T09:10:20.410Z,95121.00
2023-04-18T09:11:20.431Z,95119.00
2023-04-18T09:12:20.407Z,95119.00
2023-04-18T09:13:20.433Z,95119.00
2023-04-18T09:14:20.394Z,95119.00
2023-04-18T09:15:20.372Z,95117.00
2023-04-18T09:16:20.428Z,95113.00
2023-04-18T09:17:20.363Z,95113.00
2023-04-18T09:18:20.378Z,95111.00
2023-04-18T09:19:20.342Z,95109.00
2023-04-18T09:20:20.333Z,95105.00
2023-04-18T09:21:20.400Z,95107.00
2023-04-18T09:22:20.458Z,95109.00
2023-04-18T09:23:20.445Z,95107.00
2023-04-18T09:24:20.462Z,95109.00
2023-04-18T09:25:20.516Z,95105.00
2023-04-18T09:26:20.889Z,95105.00
2023-04-18T09:27:20.540Z,95101.00
2023-04-18T09:28:20.572Z,95103.00
2023-04-18T09:29:20.627Z,95103.00
2023-04-18T09:30:20.632Z,95101.00
2023-04-18T09:31:20.957Z,95101.00
2023-04-18T09:32:20.764Z,95103.00
2023-04-18T09:33:20.700Z,95097.00
2023-04-18T09:34:20.757Z,95097.00
2023-04-18T09:35:20.753Z,95097.00
2023-04-18T09:36:21.042Z,95095.00
2023-04-18T09:37:20.826Z,95095.00
2023-04-18T09:38:20.854Z,95095.00
2023-04-18T09:39:20.881Z,95095.00
2023-04-18T09:40:20.891Z,95093.00
2023-04-18T09:41:21.627Z,95091.00
2023-04-18T09:42:20.910Z,95093.00
2023-04-18T09:43:20.940Z,95091.00
2023-04-18T09:44:21.138Z,95093.00
2023-04-18T09:45:20.971Z,95089.00
2023-04-18T09:46:21.658Z,95091.00
2023-04-18T09:47:21.072Z,95087.00
2023-04-18T09:48:21.097Z,95087.00
2023-04-18T09:49:21.151Z,95087.00
2023-04-18T09:50:21.150Z,95089.00
2023-04-18T09:51:21.437Z,95087.00
2023-04-18T09:52:21.248Z,95089.00
2023-04-18T09:53:21.322Z,95093.00
2023-04-18T09:54:21.363Z,95091.00
2023-04-18T09:55:21.438Z,95093.00
2023-04-18T09:56:21.520Z,95089.00
2023-04-18T09:57:21.555Z,95087.00
2023-04-18T09:58:21.623Z,95087.00
2023-04-18T09:59:21.690Z,95087.00
2023-04-18T10:00:21.718Z,95087.00
2023-04-18T10:01:21.846Z,95085.00
2023-04-18T10:02:21.990Z,95087.00
2023-04-18T10:03:22.028Z,95083.00
2023-04-18T10:04:21.961Z,95079.00
2023-04-18T10:05:21.989Z,95079.00
2023-04-18T10:06:21.981Z,95081.00
2023-04-18T10:07:22.015Z,95081.00
2023-04-18T10:08:22.045Z,95077.00
2023-04-18T10:09:22.062Z,95077.00
2023-04-18T10:10:22.013Z,95077.00
2023-04-18T10:11:22.068Z,95077.00
2023-04-18T10:12:22.016Z,95076.00
2023-04-18T10:13:22.065Z,95072.00
2023-04-18T10:14:22.021Z,95070.00
2023-04-18T10:15:22.041Z,95070.00
2023-04-18T10:16:22.094Z,95066.00
2023-04-18T10:17:22.061Z,95068.00
2023-04-18T10:18:22.090Z,95066.00
2023-04-18T10:19:22.010Z,95066.00
2023-04-18T10:20:22.022Z,95062.00
2023-04-18T10:21:22.025Z,95062.00
2023-04-18T10:22:22.012Z,95064.00
2023-04-18T10:23:22.031Z,95062.00
2023-04-18T10:24:22.052Z,95060.00
2023-04-18T10:25:22.024Z,95060.00
2023-04-18T10:26:22.047Z,95054.00
2023-04-18T10:27:22.074Z,95056.00
2023-04-18T10:28:22.046Z,95058.00
2023-04-18T10:29:22.069Z,95058.00
2023-04-18T10:30:22.096Z,95056.00
2023-04-18T10:31:22.176Z,95054.00
2023-04-18T10:32:22.128Z,95054.00
2023-04-18T10:33:30.423Z,95048.00
2023-04-18T10:34:23.195Z,95048.00
2023-04-18T10:35:22.101Z,95046.00
2023-04-18T10:36:22.433Z,95044.00
2023-04-18T10:37:22.107Z,95044.00
2023-04-18T10:38:22.086Z,95044.00
2023-04-18T10:39:22.056Z,95044.00
2023-04-18T10:40:22.033Z,95042.00
2023-04-18T10:41:22.434Z,95040.00
2023-04-18T10:42:22.056Z,95040.00
2023-04-18T10:43:22.037Z,95038.00
2023-04-18T10:44:22.037Z,95038.00
2023-04-18T10:45:22.049Z,95040.00
2023-04-18T10:46:31.801Z,95036.00
2023-04-18T10:47:23.146Z,95036.00
2023-04-18T10:48:22.095Z,95036.00
2023-04-18T10:49:24.482Z,95036.00
2023-04-18T10:50:22.146Z,95034.00
2023-04-18T10:51:22.071Z,95034.00
2023-04-18T10:52:22.065Z,95036.00
2023-04-18T10:53:22.051Z,95032.00
2023-04-18T10:54:22.059Z,95032.00
2023-04-18T10:55:22.027Z,95038.00
2023-04-18T10:56:22.069Z,95034.00
2023-04-18T10:57:22.000Z,95034.00
2023-04-18T10:58:22.017Z,95030.00
2023-04-18T10:59:21.994Z,95030.00
2023-04-18T11:00:22.128Z,95021.00
2023-04-18T11:01:22.074Z,95034.00
2023-04-18T11:02:22.500Z,95028.00
2023-04-18T11:03:22.102Z,95028.00
2023-04-18T11:04:22.010Z,95026.00
2023-04-18T11:05:22.046Z,95026.00
2023-04-18T11:06:21.996Z,95025.00
2023-04-18T11:07:21.970Z,95021.00
2023-04-18T11:08:21.940Z,95021.00
2023-04-18T11:09:21.933Z,95021.00
2023-04-18T11:10:21.948Z,95025.00
2023-04-18T11:11:21.923Z,95023.00
2023-04-18T11:12:21.921Z,95021.00
2023-04-18T11:13:21.985Z,95019.00
2023-04-18T11:14:21.877Z,95017.00
2023-04-18T11:15:22.037Z,95017.00
2023-04-18T11:16:21.934Z,95017.00
2023-04-18T11:17:21.886Z,95015.00
2023-04-18T11:18:21.887Z,95015.00
2023-04-18T11:19:21.848Z,95011.00
2023-04-18T11:20:21.864Z,95011.00
2023-04-18T11:21:21.833Z,95009.00
2023-04-18T11:22:22.078Z,95013.00
2023-04-18T11:23:21.820Z,95013.00
2023-04-18T11:24:21.820Z,95009.00
2023-04-18T11:25:21.815Z,95009.00
2023-04-18T11:26:22.381Z,95009.00
2023-04-18T11:27:21.964Z,95007.00
2023-04-18T11:28:21.838Z,95013.00
2023-04-18T11:29:21.783Z,95009.00
2023-04-18T11:30:21.813Z,95005.00
2023-04-18T11:31:21.808Z,95007.00
2023-04-18T11:32:22.106Z,95011.00
2023-04-18T11:33:21.761Z,95009.00
2023-04-18T11:34:21.757Z,95009.00
2023-04-18T11:35:21.752Z,95009.00
2023-04-18T11:36:21.776Z,95007.00
2023-04-18T11:37:21.989Z,95005.00
2023-04-18T11:38:23.315Z,94999.00
2023-04-18T11:39:21.970Z,95007.00
2023-04-18T11:40:22.005Z,95005.00
2023-04-18T11:41:22.012Z,95007.00
2023-04-18T11:42:22.062Z,95003.00
2023-04-18T11:43:22.076Z,95007.00
2023-04-18T11:44:22.052Z,95005.00